Time;durP1;ratioP1;P1;durP2;ratioP2;P2;SDS_P1;SDS_P2;PMS_P1;PMS_P2;Temp;Humidity;BMP_temperature;BMP_pressure;BME280_temperature;BME280_humidity;BME280_pressure;Samples;Min_cycle;Max_cycle;Signal;HPM_P1;HPM_P2
2023/10/27 00:00:19;;;;;;;43.45;17.55;;;;;;;;;;4952216;28;20136;-89
2023/10/27 00:02:45;;;;;;;41.50;17.50;;;;;;;;;;4929644;28;20042;-90
2023/10/27 00:05:16;;;;;;;42.20;17.27;;;;;;;;;;4961038;28;20130;-90
2023/10/27 00:07:42;;;;;;;39.00;16.90;;;;;;;;;;4938796;28;20049;-89
2023/10/27 00:10:08;;;;;;;40.67;16.92;;;;;;;;;;4976117;28;20037;-90
2023/10/27 00:12:33;;;;;;;42.28;16.45;;;;;;;;;;5029667;28;20032;-89
2023/10/27 00:14:59;;;;;;;44.72;19.27;;;;;;;;;;5052415;28;20040;-89
2023/10/27 00:17:24;;;;;;;49.78;18.60;;;;;;;;;;5057581;28;20060;-90
2023/10/27 00:20:08;;;;;;;50.88;18.23;;;;;;;;;;5031977;28;20033;-90
2023/10/27 00:22:35;;;;;;;45.65;18.77;;;;;;;;;;5047153;28;20968;-89
2023/10/27 00:25:01;;;;;;;46.33;17.85;;;;;;;;;;5040542;28;20035;-89
2023/10/27 00:27:26;;;;;;;43.85;18.42;;;;;;;;;;5048157;28;20028;-88
2023/10/27 00:29:51;;;;;;;47.92;18.77;;;;;;;;;;5029587;28;20066;-89
2023/10/27 00:32:19;;;;;;;55.17;19.15;;;;;;;;;;5034659;28;20032;-88
2023/10/27 00:34:45;;;;;;;48.67;18.95;;;;;;;;;;5045394;28;20119;-90
2023/10/27 00:37:10;;;;;;;45.85;18.45;;;;;;;;;;5040800;28;20166;-90
2023/10/27 00:39:36;;;;;;;55.33;20.63;;;;;;;;;;5045838;28;20056;-90
2023/10/27 00:42:02;;;;;;;48.25;19.88;;;;;;;;;;5059296;28;20038;-89
2023/10/27 00:44:35;;;;;;;49.72;19.60;;;;;;;;;;5059878;28;20035;-90
2023/10/27 00:47:05;;;;;;;49.03;19.60;;;;;;;;;;5033144;28;20577;-90
2023/10/27 00:49:31;;;;;;;52.88;20.63;;;;;;;;;;5038265;28;20044;-89
2023/10/27 00:51:56;;;;;;;52.70;19.83;;;;;;;;;;5001865;28;20048;-91
2023/10/27 00:54:22;;;;;;;51.92;19.30;;;;;;;;;;5032050;28;20036;-90
2023/10/27 00:56:50;;;;;;;58.42;21.60;;;;;;;;;;5021539;28;20472;-90
2023/10/27 00:59:15;;;;;;;;;;;;;;;;;;5066932;28;20487;-90
2023/10/27 01:01:44;;;;;;;58.88;20.85;;;;;;;;;;5041873;28;19972;-90
2023/10/27 01:04:09;;;;;;;53.60;20.17;;;;;;;;;;5029302;28;20028;-90
2023/10/27 01:06:35;;;;;;;54.60;20.15;;;;;;;;;;5042430;28;20037;-89
2023/10/27 01:09:00;;;;;;;55.92;22.15;;;;;;;;;;5034394;28;20040;-90
2023/10/27 01:11:39;;;;;;;57.00;19.63;;;;;;;;;;5023521;28;20494;-89
2023/10/27 01:14:04;;;;;;;54.13;19.55;;;;;;;;;;5042989;28;20127;-90
2023/10/27 01:16:30;;;;;;;60.30;20.80;;;;;;;;;;5035496;28;20182;-90
2023/10/27 01:18:55;;;;;;;57.13;20.83;;;;;;;;;;5042202;28;20048;-90
2023/10/27 01:21:21;;;;;;;56.80;19.98;;;;;;;;;;5038673;28;20121;-90
2023/10/27 01:23:46;;;;;;;54.10;19.70;;;;;;;;;;5039625;28;20173;-88
2023/10/27 01:26:12;;;;;;;53.55;20.65;;;;;;;;;;5024177;28;20131;-90
2023/10/27 01:28:37;;;;;;;54.65;20.48;;;;;;;;;;5047027;28;20064;-89
2023/10/27 01:31:03;;;;;;;52.13;19.55;;;;;;;;;;5028010;28;20074;-90
2023/10/27 01:33:42;;;;;;;50.58;18.92;;;;;;;;;;5018479;28;20028;-90
2023/10/27 01:36:13;;;;;;;50.83;18.80;;;;;;;;;;5041595;28;20032;-90
2023/10/27 01:38:38;;;;;;;51.67;18.92;;;;;;;;;;5046357;28;20100;-90
2023/10/27 01:41:04;;;;;;;52.70;20.17;;;;;;;;;;5057766;28;20889;-90
2023/10/27 01:43:29;;;;;;;49.53;18.85;;;;;;;;;;5034357;28;20028;-90
2023/10/27 01:45:55;;;;;;;51.75;19.23;;;;;;;;;;5039264;28;20036;-91
2023/10/27 01:48:20;;;;;;;52.88;19.77;;;;;;;;;;5043846;28;20043;-90
2023/10/27 01:50:46;;;;;;;51.42;19.45;;;;;;;;;;5029806;28;20043;-90
2023/10/27 01:53:12;;;;;;;52.10;19.48;;;;;;;;;;5023975;28;20037;-89
2023/10/27 01:55:37;;;;;;;52.33;19.33;;;;;;;;;;5031787;28;20482;-89
2023/10/27 01:58:02;;;;;;;46.88;17.58;;;;;;;;;;5033271;28;20510;-89
2023/10/27 02:00:28;;;;;;;52.20;19.05;;;;;;;;;;5026266;28;20041;-90
2023/10/27 02:02:53;;;;;;;56.05;19.70;;;;;;;;;;5026490;28;20040;-90
2023/10/27 02:05:19;;;;;;;51.30;18.42;;;;;;;;;;5037000;28;20064;-90
2023/10/27 02:07:47;;;;;;;54.35;19.00;;;;;;;;;;5048182;28;20029;-89
2023/10/27 02:10:12;;;;;;;52.08;19.33;;;;;;;;;;5040307;28;20123;-88
2023/10/27 02:12:38;;;;;;;52.45;19.60;;;;;;;;;;5032063;28;20111;-89
2023/10/27 02:15:04;;;;;;;51.25;19.55;;;;;;;;;;5049632;28;20055;-89
2023/10/27 02:17:33;;;;;;;59.35;20.55;;;;;;;;;;5067292;28;20041;-90
2023/10/27 02:19:58;;;;;;;60.25;20.40;;;;;;;;;;5066553;28;20043;-87
2023/10/27 02:22:24;;;;;;;64.78;20.45;;;;;;;;;;5019967;28;20036;-89
2023/10/27 02:24:53;;;;;;;64.47;22.05;;;;;;;;;;5047401;28;20503;-90
2023/10/27 02:27:18;;;;;;;61.90;20.73;;;;;;;;;;5043097;28;20054;-89
2023/10/27 02:29:53;;;;;;;63.13;21.15;;;;;;;;;;5035818;28;20037;-89
2023/10/27 02:32:18;;;;;;;60.63;20.60;;;;;;;;;;5048495;28;20028;-90
2023/10/27 02:34:44;;;;;;;64.53;21.17;;;;;;;;;;5037383;28;20146;-90
2023/10/27 02:37:13;;;;;;;66.25;21.45;;;;;;;;;;5048308;28;20040;-89
2023/10/27 02:39:39;;;;;;;60.40;21.00;;;;;;;;;;5049672;28;20033;-89
2023/10/27 02:42:28;;;;;;;56.97;20.77;;;;;;;;;;5027182;28;20165;-89
2023/10/27 02:45:09;;;;;;;60.17;19.95;;;;;;;;;;5015585;28;20534;-90
2023/10/27 02:47:35;;;;;;;60.05;19.98;;;;;;;;;;5028914;28;20519;-90
2023/10/27 02:50:01;;;;;;;64.05;21.10;;;;;;;;;;5011472;28;20045;-90
2023/10/27 02:52:29;;;;;;;62.33;20.42;;;;;;;;;;5023963;28;20036;-90
2023/10/27 02:54:54;;;;;;;69.35;20.70;;;;;;;;;;5044656;28;20033;-90
2023/10/27 02:57:20;;;;;;;58.80;21.10;;;;;;;;;;5045848;28;20052;-90
2023/10/27 02:59:48;;;;;;;65.43;21.20;;;;;;;;;;5046285;28;20051;-89
2023/10/27 03:02:14;;;;;;;72.10;21.38;;;;;;;;;;5039631;28;20558;-90
2023/10/27 03:04:39;;;;;;;69.22;22.88;;;;;;;;;;5032003;28;20072;-90
2023/10/27 03:07:08;;;;;;;70.30;22.80;;;;;;;;;;5062025;28;20080;-88
2023/10/27 03:09:33;;;;;;;70.20;22.02;;;;;;;;;;5047184;28;20771;-89
2023/10/27 03:11:59;;;;;;;71.97;22.77;;;;;;;;;;5044421;28;20040;-88
2023/10/27 03:14:24;;;;;;;73.50;22.90;;;;;;;;;;5023742;28;20032;-89
2023/10/27 03:16:50;;;;;;;74.35;22.98;;;;;;;;;;5035177;28;20469;-89
2023/10/27 03:19:18;;;;;;;72.75;23.80;;;;;;;;;;5028340;28;20041;-89
2023/10/27 03:21:43;;;;;;;65.20;21.70;;;;;;;;;;5028636;28;20047;-89
2023/10/27 03:24:09;;;;;;;64.97;22.20;;;;;;;;;;5029085;28;20036;-89
2023/10/27 03:26:41;;;;;;;65.55;21.98;;;;;;;;;;5018765;28;20033;-89
2023/10/27 03:29:07;;;;;;;63.38;21.65;;;;;;;;;;5032358;28;20569;-89
2023/10/27 03:31:34;;;;;;;61.80;21.20;;;;;;;;;;5023269;28;20544;-91
2023/10/27 03:34:08;;;;;;;67.80;22.13;;;;;;;;;;5033798;28;20033;-90
2023/10/27 03:36:33;;;;;;;65.05;22.38;;;;;;;;;;5023214;28;20034;-89
2023/10/27 03:38:59;;;;;;;66.18;22.45;;;;;;;;;;5027413;28;20033;-91
2023/10/27 03:41:24;;;;;;;52.15;19.10;;;;;;;;;;5025167;28;20112;-90
2023/10/27 03:43:50;;;;;;;56.20;20.30;;;;;;;;;;5049077;28;20066;-89
2023/10/27 03:46:15;;;;;;;52.75;20.27;;;;;;;;;;5028608;28;20064;-91
2023/10/27 03:48:44;;;;;;;58.67;21.05;;;;;;;;;;5045620;28;20129;-91
2023/10/27 03:51:11;;;;;;;60.22;20.58;;;;;;;;;;5020400;28;20101;-90
2023/10/27 03:53:36;;;;;;;60.00;21.33;;;;;;;;;;5024606;28;20470;-90
2023/10/27 03:56:09;;;;;;;56.47;20.70;;;;;;;;;;5048352;28;20132;-88
2023/10/27 03:58:35;;;;;;;61.13;21.70;;;;;;;;;;5020709;28;20934;-89
2023/10/27 04:01:00;;;;;;;54.75;19.88;;;;;;;;;;5018993;28;20134;-90
2023/10/27 04:03:26;;;;;;;57.35;20.88;;;;;;;;;;5040035;28;20032;-90
2023/10/27 04:05:52;;;;;;;53.10;20.05;;;;;;;;;;5048103;28;20040;-91
2023/10/27 04:08:17;;;;;;;49.60;19.48;;;;;;;;;;5041237;28;20395;-90
2023/10/27 04:10:55;;;;;;;52.25;19.67;;;;;;;;;;5029251;28;20407;-90
2023/10/27 04:13:29;;;;;;;54.13;19.38;;;;;;;;;;5015809;28;20033;-90
2023/10/27 04:15:54;;;;;;;47.90;19.90;;;;;;;;;;5017113;28;20555;-91
2023/10/27 04:18:20;;;;;;;47.92;18.13;;;;;;;;;;5037240;28;20041;-91
2023/10/27 04:20:51;;;;;;;50.58;18.80;;;;;;;;;;5022642;28;20028;-89
2023/10/27 04:23:17;;;;;;;50.58;17.80;;;;;;;;;;5048375;28;20059;-86
2023/10/27 04:25:42;;;;;;;47.05;17.60;;;;;;;;;;5042693;28;20040;-85
2023/10/27 04:28:10;;;;;;;47.20;17.60;;;;;;;;;;5075889;28;20126;-85
2023/10/27 04:30:36;;;;;;;48.80;17.75;;;;;;;;;;5056338;28;20139;-86
2023/10/27 04:33:04;;;;;;;49.95;17.20;;;;;;;;;;5049709;28;20115;-85
2023/10/27 04:35:30;;;;;;;48.80;16.55;;;;;;;;;;5049805;28;20078;-84
2023/10/27 04:37:56;;;;;;;40.97;15.20;;;;;;;;;;5043310;28;20563;-85
2023/10/27 04:40:22;;;;;;;47.08;16.70;;;;;;;;;;5040856;28;20510;-86
2023/10/27 04:42:51;;;;;;;48.33;17.13;;;;;;;;;;5034101;28;20028;-86
2023/10/27 04:45:16;;;;;;;50.58;17.33;;;;;;;;;;5056978;28;20170;-84
2023/10/27 04:47:43;;;;;;;48.38;17.20;;;;;;;;;;5063133;28;20579;-85
2023/10/27 04:50:09;;;;;;;45.17;17.47;;;;;;;;;;5045799;28;20042;-86
2023/10/27 04:52:34;;;;;;;55.65;19.33;;;;;;;;;;5026122;28;20465;-86
2023/10/27 04:55:07;;;;;;;46.05;17.27;;;;;;;;;;5052908;28;20487;-85
2023/10/27 04:57:36;;;;;;;44.60;16.63;;;;;;;;;;5040728;28;20056;-86
2023/10/27 05:00:04;;;;;;;45.08;15.77;;;;;;;;;;5030044;28;20040;-86
2023/10/27 05:02:32;;;;;;;44.58;16.73;;;;;;;;;;5017938;28;20033;-86
2023/10/27 05:04:57;;;;;;;46.20;17.15;;;;;;;;;;5039268;28;20035;-83
2023/10/27 05:07:33;;;;;;;48.28;17.65;;;;;;;;;;5049746;28;20034;-86
2023/10/27 05:09:59;;;;;;;47.00;17.67;;;;;;;;;;5024917;28;20106;-85
2023/10/27 05:12:25;;;;;;;45.75;17.10;;;;;;;;;;5029779;28;20037;-86
2023/10/27 05:14:50;;;;;;;50.45;17.70;;;;;;;;;;5037769;28;20496;-85
2023/10/27 05:17:17;;;;;;;47.33;17.77;;;;;;;;;;5039114;28;20055;-86
2023/10/27 05:19:42;;;;;;;40.70;16.75;;;;;;;;;;5035884;28;20510;-88
2023/10/27 05:22:12;;;;;;;46.35;17.75;;;;;;;;;;5021393;28;20029;-86
2023/10/27 05:24:38;;;;;;;45.20;17.42;;;;;;;;;;5028669;28;20043;-86
2023/10/27 05:27:03;;;;;;;45.72;17.00;;;;;;;;;;5006521;28;20033;-86
2023/10/27 05:29:29;;;;;;;49.20;17.13;;;;;;;;;;5038862;28;20115;-85
2023/10/27 05:31:55;;;;;;;46.00;17.15;;;;;;;;;;5021893;28;20671;-88
2023/10/27 05:34:23;;;;;;;45.47;17.48;;;;;;;;;;5025684;28;20040;-80
2023/10/27 05:36:48;;;;;;;44.83;16.67;;;;;;;;;;5028619;28;20115;-80
2023/10/27 05:39:16;;;;;;;39.80;17.05;;;;;;;;;;5023129;28;20143;-80
2023/10/27 05:41:49;;;;;;;43.83;17.20;;;;;;;;;;5016380;28;20032;-81
2023/10/27 05:44:15;;;;;;;41.13;16.00;;;;;;;;;;5013394;28;20037;-81
2023/10/27 05:46:40;;;;;;;39.22;16.30;;;;;;;;;;5026402;28;20032;-81
2023/10/27 05:49:15;;;;;;;43.20;16.33;;;;;;;;;;5028237;28;20056;-81
2023/10/27 05:51:40;;;;;;;40.85;16.92;;;;;;;;;;5021623;28;20574;-81
2023/10/27 05:54:05;;;;;;;38.47;16.10;;;;;;;;;;5023486;28;20025;-81
2023/10/27 05:56:31;;;;;;;38.75;15.70;;;;;;;;;;5044230;28;20128;-80
2023/10/27 05:58:57;;;;;;;39.42;15.93;;;;;;;;;;5019990;28;20082;-81
2023/10/27 06:01:23;;;;;;;38.00;15.30;;;;;;;;;;5021527;28;20064;-81
2023/10/27 06:03:48;;;;;;;36.80;15.15;;;;;;;;;;5034980;28;20044;-81
2023/10/27 06:06:14;;;;;;;35.47;15.30;;;;;;;;;;5028521;28;20397;-81
2023/10/27 06:08:44;;;;;;;38.97;15.90;;;;;;;;;;5027633;28;20120;-81
2023/10/27 06:11:13;;;;;;;37.35;15.02;;;;;;;;;;5034962;28;20032;-81
2023/10/27 06:13:39;;;;;;;35.05;15.02;;;;;;;;;;5037119;28;20036;-81
2023/10/27 06:16:18;;;;;;;36.10;15.50;;;;;;;;;;5001690;28;20045;-81
2023/10/27 06:18:43;;;;;;;38.35;15.45;;;;;;;;;;5047640;28;20040;-81
2023/10/27 06:21:09;;;;;;;37.80;16.17;;;;;;;;;;5035478;28;20522;-81
2023/10/27 06:23:43;;;;;;;37.97;16.35;;;;;;;;;;5045955;28;20606;-80
2023/10/27 06:26:08;;;;;;;38.08;15.38;;;;;;;;;;5055390;28;20525;-81
2023/10/27 06:28:34;;;;;;;36.25;15.60;;;;;;;;;;5029430;28;20029;-81
2023/10/27 06:31:03;;;;;;;36.42;15.23;;;;;;;;;;5036697;28;20028;-81
2023/10/27 06:33:32;;;;;;;40.03;16.08;;;;;;;;;;5046650;28;20039;-81
2023/10/27 06:35:59;;;;;;;38.85;16.75;;;;;;;;;;5041701;28;20040;-81
2023/10/27 06:38:45;;;;;;;36.22;15.57;;;;;;;;;;5050512;28;20045;-81
2023/10/27 06:41:10;;;;;;;37.47;15.95;;;;;;;;;;4966257;28;20061;-81
2023/10/27 06:43:36;;;;;;;37.47;15.45;;;;;;;;;;4941007;28;20124;-84
2023/10/27 06:46:01;;;;;;;41.75;16.13;;;;;;;;;;4924624;28;20464;-84
2023/10/27 06:48:34;;;;;;;37.92;15.35;;;;;;;;;;4950282;28;20042;-85
2023/10/27 06:50:59;;;;;;;38.53;16.40;;;;;;;;;;4956553;28;20060;-85
2023/10/27 06:53:24;;;;;;;38.00;18.15;;;;;;;;;;4949344;28;20568;-84
2023/10/27 06:55:55;;;;;;;45.80;18.85;;;;;;;;;;4956968;28;20521;-85
2023/10/27 06:58:21;;;;;;;39.70;17.17;;;;;;;;;;4949847;28;20042;-84
2023/10/27 07:00:47;;;;;;;36.92;16.75;;;;;;;;;;4919142;28;20109;-84
2023/10/27 07:03:12;;;;;;;37.05;16.20;;;;;;;;;;4965100;28;20142;-85
2023/10/27 07:05:37;;;;;;;36.55;16.88;;;;;;;;;;4939124;28;20457;-84
2023/10/27 07:08:03;;;;;;;33.63;16.30;;;;;;;;;;4941517;28;20114;-84
2023/10/27 07:10:28;;;;;;;38.03;16.75;;;;;;;;;;4969585;28;20042;-84
2023/10/27 07:12:54;;;;;;;35.17;16.38;;;;;;;;;;4971631;28;20081;-85
2023/10/27 07:15:22;;;;;;;36.25;16.05;;;;;;;;;;4960596;28;20042;-84
2023/10/27 07:17:48;;;;;;;146.02;70.78;;;;;;;;;;4983655;28;20050;-86
2023/10/27 07:20:13;;;;;;;68.63;30.17;;;;;;;;;;5051479;28;20040;-85
2023/10/27 07:22:38;;;;;;;48.90;19.92;;;;;;;;;;5049690;28;20046;-84
2023/10/27 07:25:07;;;;;;;46.97;19.83;;;;;;;;;;5044521;28;20028;-83
2023/10/27 07:27:33;;;;;;;41.00;17.77;;;;;;;;;;5046632;28;20029;-84
2023/10/27 07:30:19;;;;;;;38.53;17.80;;;;;;;;;;5051378;28;20051;-85
2023/10/27 07:32:45;;;;;;;41.57;18.50;;;;;;;;;;4978563;28;20035;-84
2023/10/27 07:35:13;;;;;;;42.92;18.10;;;;;;;;;;4980660;28;20041;-85
2023/10/27 07:37:39;;;;;;;38.40;18.55;;;;;;;;;;4971977;28;20081;-85
2023/10/27 07:40:10;;;;;;;36.20;17.80;;;;;;;;;;4981433;28;20069;-84
2023/10/27 07:42:35;;;;;;;40.83;17.63;;;;;;;;;;4986416;28;20042;-83
2023/10/27 07:45:01;;;;;;;46.20;21.23;;;;;;;;;;4973019;28;20095;-84
2023/10/27 07:47:26;;;;;;;51.97;24.70;;;;;;;;;;4969208;28;20484;-84
2023/10/27 07:49:52;;;;;;;43.08;19.55;;;;;;;;;;4965453;28;20590;-84
2023/10/27 07:52:18;;;;;;;35.97;17.42;;;;;;;;;;4962784;28;20088;-84
2023/10/27 07:54:43;;;;;;;35.72;17.63;;;;;;;;;;4987048;28;20030;-84
2023/10/27 07:57:09;;;;;;;37.08;17.17;;;;;;;;;;4961181;28;20104;-84
2023/10/27 07:59:34;;;;;;;37.88;18.27;;;;;;;;;;4973754;28;20509;-84
2023/10/27 08:02:20;;;;;;;37.83;17.65;;;;;;;;;;4981484;28;20486;-84
2023/10/27 08:04:51;;;;;;;36.80;17.17;;;;;;;;;;4914176;29;20060;-84
2023/10/27 08:07:17;;;;;;;35.80;16.45;;;;;;;;;;4914620;29;20403;-85
2023/10/27 08:09:44;;;;;;;34.92;16.10;;;;;;;;;;4958626;28;20501;-84
2023/10/27 08:12:09;;;;;;;36.63;16.70;;;;;;;;;;5004246;28;20087;-84
2023/10/27 08:14:35;;;;;;;35.30;17.10;;;;;;;;;;5002389;28;20034;-84
2023/10/27 08:17:00;;;;;;;34.17;16.25;;;;;;;;;;4984889;28;20045;-84
2023/10/27 08:19:28;;;;;;;32.08;15.13;;;;;;;;;;5007129;28;20548;-84
2023/10/27 08:21:59;;;;;;;33.85;16.13;;;;;;;;;;5004645;28;20516;-85
2023/10/27 08:24:45;;;;;;;33.97;15.75;;;;;;;;;;4994593;28;20033;-84
2023/10/27 08:27:10;;;;;;;38.17;17.55;;;;;;;;;;4938449;28;20035;-84
2023/10/27 08:29:38;;;;;;;33.88;16.40;;;;;;;;;;4932224;28;20419;-84
2023/10/27 08:32:04;;;;;;;34.33;15.85;;;;;;;;;;4946311;28;20062;-85
2023/10/27 08:34:29;;;;;;;33.72;15.40;;;;;;;;;;4961071;28;20142;-84
2023/10/27 08:36:55;;;;;;;28.45;14.23;;;;;;;;;;4933724;28;20046;-84
2023/10/27 08:39:20;;;;;;;29.17;14.57;;;;;;;;;;4958181;28;21867;-85
2023/10/27 08:41:46;;;;;;;27.35;13.93;;;;;;;;;;4942843;28;20453;-85
2023/10/27 08:44:15;;;;;;;27.77;13.50;;;;;;;;;;4939215;28;20042;-84
2023/10/27 08:46:41;;;;;;;27.85;14.05;;;;;;;;;;4941950;28;20038;-85
2023/10/27 08:49:08;;;;;;;31.67;15.10;;;;;;;;;;4931360;28;20049;-85
2023/10/27 08:51:48;;;;;;;28.92;14.15;;;;;;;;;;4926859;28;20189;-84
2023/10/27 08:54:16;;;;;;;32.47;15.23;;;;;;;;;;4968328;28;20030;-84
2023/10/27 08:56:41;;;;;;;28.00;14.18;;;;;;;;;;4950867;28;20042;-84
2023/10/27 08:59:10;;;;;;;30.58;14.73;;;;;;;;;;4945839;28;20041;-83
2023/10/27 09:01:36;;;;;;;30.98;15.93;;;;;;;;;;4983190;28;20046;-83
2023/10/27 09:04:08;;;;;;;31.60;15.30;;;;;;;;;;5005268;28;20035;-83
2023/10/27 09:06:37;;;;;;;28.70;13.90;;;;;;;;;;5031298;28;20051;-83
2023/10/27 09:09:05;;;;;;;34.90;17.23;;;;;;;;;;5046310;28;20056;-83
2023/10/27 09:11:49;;;;;;;36.45;17.85;;;;;;;;;;5056055;28;20159;-84
2023/10/27 09:14:30;;;;;;;29.50;14.73;;;;;;;;;;5033551;28;20121;-84
2023/10/27 09:17:09;;;;;;;33.38;14.77;;;;;;;;;;5042004;28;20589;-84
2023/10/27 09:19:41;;;;;;;28.85;13.82;;;;;;;;;;5047751;28;20043;-83
2023/10/27 09:22:18;;;;;;;27.92;13.55;;;;;;;;;;5040927;28;20039;-82
2023/10/27 09:24:44;;;;;;;25.23;12.60;;;;;;;;;;5040331;28;20042;-84
2023/10/27 09:27:09;;;;;;;25.17;13.05;;;;;;;;;;5042534;28;20028;-84
2023/10/27 09:29:43;;;;;;;26.17;13.02;;;;;;;;;;5048500;28;20062;-84
2023/10/27 09:32:26;;;;;;;26.23;13.25;;;;;;;;;;5063237;28;20062;-84
2023/10/27 09:35:13;;;;;;;27.98;13.07;;;;;;;;;;5038370;28;20059;-83
2023/10/27 09:37:41;;;;;;;26.27;12.65;;;;;;;;;;5056194;28;20076;-84
2023/10/27 09:40:09;;;;;;;;;;;;;;;;;;5042294;28;20119;-84
2023/10/27 09:42:35;;;;;;;25.40;12.20;;;;;;;;;;5031416;28;19981;-84
2023/10/27 09:45:13;;;;;;;24.23;12.50;;;;;;;;;;5047487;28;20040;-84
2023/10/27 09:47:41;;;;;;;27.42;13.30;;;;;;;;;;5047127;28;20495;-84
2023/10/27 09:50:07;;;;;;;24.27;12.35;;;;;;;;;;5054747;28;20063;-84
2023/10/27 09:52:34;;;;;;;24.92;12.63;;;;;;;;;;5058147;28;20806;-83
2023/10/27 09:55:01;;;;;;;28.90;13.43;;;;;;;;;;5029511;28;20066;-84
2023/10/27 09:57:30;;;;;;;23.65;12.10;;;;;;;;;;5049291;28;20059;-84
2023/10/27 09:59:56;;;;;;;23.58;12.35;;;;;;;;;;5030269;28;20060;-83
2023/10/27 10:02:23;;;;;;;23.38;11.95;;;;;;;;;;5035502;28;20543;-84
2023/10/27 10:04:51;;;;;;;22.75;11.70;;;;;;;;;;5055583;28;20044;-84
2023/10/27 10:07:52;;;;;;;22.67;11.23;;;;;;;;;;5056656;28;20086;-85
2023/10/27 10:10:26;;;;;;;23.33;12.18;;;;;;;;;;5045554;28;20426;-85
2023/10/27 10:13:06;;;;;;;25.88;14.00;;;;;;;;;;5037920;28;20050;-85
2023/10/27 10:15:42;;;;;;;27.27;15.27;;;;;;;;;;5033656;28;20112;-84
2023/10/27 10:18:33;;;;;;;24.00;12.93;;;;;;;;;;5041628;28;20044;-83
2023/10/27 10:20:59;;;;;;;22.77;12.15;;;;;;;;;;5075198;28;20040;-84
2023/10/27 10:23:51;;;;;;;22.02;12.25;;;;;;;;;;5043790;28;20121;-84
2023/10/27 10:26:16;;;;;;;19.55;11.52;;;;;;;;;;5054157;28;20182;-84
2023/10/27 10:28:45;;;;;;;19.65;11.60;;;;;;;;;;5053295;28;20551;-83
2023/10/27 10:31:10;;;;;;;19.40;11.73;;;;;;;;;;5041927;28;20441;-83
2023/10/27 10:33:37;;;;;;;18.85;10.82;;;;;;;;;;5040096;28;20110;-83
2023/10/27 10:36:14;;;;;;;19.65;11.40;;;;;;;;;;5034686;28;20059;-83
2023/10/27 10:38:44;;;;;;;19.88;11.55;;;;;;;;;;5059965;28;20082;-84
2023/10/27 10:41:20;;;;;;;19.70;11.82;;;;;;;;;;5035753;28;20112;-84
2023/10/27 10:47:00;;;;;;;16.30;11.13;;;;;;;;;;5060510;28;20117;-84
2023/10/27 10:49:27;;;;;;;18.58;10.35;;;;;;;;;;5064672;28;20037;-84
2023/10/27 10:51:56;;;;;;;16.80;11.27;;;;;;;;;;5032082;28;20036;-84
2023/10/27 10:54:30;;;;;;;16.48;10.70;;;;;;;;;;5057784;28;20095;-85
2023/10/27 10:57:07;;;;;;;19.60;12.07;;;;;;;;;;5028757;28;20395;-82
2023/10/27 10:59:33;;;;;;;;;;;;;;;;;;5050519;28;20040;-82
2023/10/27 11:01:59;;;;;;;19.85;11.15;;;;;;;;;;5061868;28;19922;-81
2023/10/27 11:04:28;;;;;;;17.83;11.30;;;;;;;;;;5048277;28;20402;-83
2023/10/27 11:07:03;;;;;;;16.55;10.75;;;;;;;;;;5043177;28;20029;-83
2023/10/27 11:09:31;;;;;;;19.40;11.73;;;;;;;;;;5042484;28;21017;-83
2023/10/27 11:11:57;;;;;;;23.13;13.18;;;;;;;;;;5036852;28;20155;-82
2023/10/27 11:14:23;;;;;;;24.05;14.60;;;;;;;;;;5036226;28;20491;-82
2023/10/27 11:16:58;;;;;;;22.42;13.27;;;;;;;;;;5050242;28;20047;-82
2023/10/27 11:19:24;;;;;;;21.00;12.77;;;;;;;;;;5022571;28;20036;-84
2023/10/27 11:22:01;;;;;;;21.83;12.98;;;;;;;;;;5031207;28;20143;-83
2023/10/27 11:24:26;;;;;;;19.20;12.23;;;;;;;;;;5050806;28;20069;-82
2023/10/27 11:26:52;;;;;;;22.30;13.30;;;;;;;;;;5039929;28;20089;-82
2023/10/27 11:29:17;;;;;;;20.17;12.55;;;;;;;;;;5034076;28;20035;-81
2023/10/27 11:31:44;;;;;;;19.35;11.90;;;;;;;;;;5047764;28;20510;-81
2023/10/27 11:34:16;;;;;;;18.30;11.52;;;;;;;;;;5039551;28;20044;-82
2023/10/27 11:36:43;;;;;;;19.20;12.82;;;;;;;;;;5058116;28;20055;-82
2023/10/27 11:39:23;;;;;;;17.58;11.60;;;;;;;;;;5049011;28;20032;-82
2023/10/27 11:41:54;;;;;;;19.25;12.07;;;;;;;;;;5035038;28;20037;-82
2023/10/27 11:44:20;;;;;;;20.00;11.52;;;;;;;;;;5059629;28;20047;-81
2023/10/27 11:46:49;;;;;;;20.27;11.18;;;;;;;;;;5030728;28;20399;-81
2023/10/27 11:49:18;;;;;;;18.00;11.18;;;;;;;;;;5059109;28;20102;-81
2023/10/27 11:51:46;;;;;;;17.45;10.82;;;;;;;;;;5042152;28;20031;-82
2023/10/27 11:54:12;;;;;;;17.42;10.40;;;;;;;;;;5046510;28;20043;-81
2023/10/27 11:56:38;;;;;;;16.25;10.25;;;;;;;;;;5038231;28;20384;-82
2023/10/27 11:59:04;;;;;;;16.30;10.45;;;;;;;;;;5048268;28;20032;-81
2023/10/27 12:01:31;;;;;;;17.23;10.10;;;;;;;;;;5019364;28;20032;-82
2023/10/27 12:03:56;;;;;;;16.15;10.30;;;;;;;;;;5059988;28;20036;-82
2023/10/27 12:06:34;;;;;;;14.10;9.80;;;;;;;;;;5049507;28;20032;-81
2023/10/27 12:08:59;;;;;;;;;;;;;;;;;;5040571;28;20565;-81
2023/10/27 12:11:25;;;;;;;26.67;16.00;;;;;;;;;;5040034;28;19916;-82
2023/10/27 12:13:50;;;;;;;18.55;11.18;;;;;;;;;;5044929;28;20028;-80
2023/10/27 12:16:18;;;;;;;14.48;9.15;;;;;;;;;;5023495;28;20174;-81
2023/10/27 12:18:44;;;;;;;14.13;9.23;;;;;;;;;;5053954;28;20032;-81
2023/10/27 12:21:10;;;;;;;14.48;8.95;;;;;;;;;;5037212;28;20110;-81
2023/10/27 12:23:35;;;;;;;13.73;8.98;;;;;;;;;;5028433;28;20111;-82
2023/10/27 12:26:01;;;;;;;13.70;8.95;;;;;;;;;;5044940;28;20402;-81
2023/10/27 12:28:27;;;;;;;13.50;8.65;;;;;;;;;;5044074;28;20036;-81
2023/10/27 12:31:01;;;;;;;14.75;9.10;;;;;;;;;;5047994;28;20029;-81
2023/10/27 12:33:27;;;;;;;14.65;9.82;;;;;;;;;;5027685;28;20569;-82
2023/10/27 12:35:57;;;;;;;14.23;9.15;;;;;;;;;;5034962;28;20036;-82
2023/10/27 12:38:23;;;;;;;15.13;9.52;;;;;;;;;;5025550;28;20527;-81
2023/10/27 12:43:37;;;;;;;13.80;9.43;;;;;;;;;;5058863;28;20045;-81
2023/10/27 12:46:09;;;;;;;14.35;9.27;;;;;;;;;;5043924;28;20024;-81
2023/10/27 12:48:34;;;;;;;14.18;9.50;;;;;;;;;;5059942;28;20483;-82
2023/10/27 12:51:01;;;;;;;15.40;9.57;;;;;;;;;;5049466;28;20054;-81
2023/10/27 12:53:27;;;;;;;31.33;18.48;;;;;;;;;;5036408;28;20044;-81
2023/10/27 12:55:53;;;;;;;20.23;11.95;;;;;;;;;;5046839;28;20032;-81
2023/10/27 12:58:18;;;;;;;13.45;9.75;;;;;;;;;;5024534;28;20058;-82
2023/10/27 13:00:44;;;;;;;15.63;9.80;;;;;;;;;;5052352;28;20394;-81
2023/10/27 13:03:10;;;;;;;15.48;8.93;;;;;;;;;;5045839;28;20379;-81
2023/10/27 13:05:37;;;;;;;14.80;9.70;;;;;;;;;;5046586;28;20036;-82
2023/10/27 13:08:03;;;;;;;15.48;9.63;;;;;;;;;;5042184;28;20043;-81
2023/10/27 13:10:28;;;;;;;16.65;10.05;;;;;;;;;;5043072;28;20040;-81
2023/10/27 13:13:00;;;;;;;17.55;10.65;;;;;;;;;;5046333;28;20039;-82
2023/10/27 13:15:26;;;;;;;17.83;11.68;;;;;;;;;;5045739;28;20396;-82
2023/10/27 13:17:51;;;;;;;16.77;10.70;;;;;;;;;;5031434;28;22568;-82
2023/10/27 13:20:18;;;;;;;19.40;10.45;;;;;;;;;;5046658;28;20044;-82
2023/10/27 13:22:46;;;;;;;14.70;10.35;;;;;;;;;;5038188;28;20063;-82
2023/10/27 13:25:12;;;;;;;15.27;9.73;;;;;;;;;;5042380;28;20403;-82
2023/10/27 13:27:45;;;;;;;16.08;9.85;;;;;;;;;;5030861;28;20032;-81
2023/10/27 13:30:10;;;;;;;14.18;9.30;;;;;;;;;;5048005;28;20119;-82
2023/10/27 13:32:36;;;;;;;16.25;10.07;;;;;;;;;;5040419;28;20120;-82
2023/10/27 13:35:01;;;;;;;15.07;9.95;;;;;;;;;;5056794;28;20047;-82
2023/10/27 13:37:33;;;;;;;14.73;10.18;;;;;;;;;;5041896;28;20028;-81
2023/10/27 13:39:58;;;;;;;17.70;10.07;;;;;;;;;;5031755;28;20041;-82
2023/10/27 13:42:24;;;;;;;16.88;10.60;;;;;;;;;;5056200;28;20036;-82
2023/10/27 13:44:50;;;;;;;16.15;10.63;;;;;;;;;;5044756;28;20032;-82
2023/10/27 13:47:18;;;;;;;16.08;10.32;;;;;;;;;;5031916;28;20099;-82
2023/10/27 13:49:44;;;;;;;16.50;10.90;;;;;;;;;;5042204;28;20040;-83
2023/10/27 13:52:11;;;;;;;26.55;15.43;;;;;;;;;;5044153;28;20063;-81
2023/10/27 13:54:37;;;;;;;20.55;13.25;;;;;;;;;;5057472;28;20032;-81
2023/10/27 13:57:09;;;;;;;18.33;11.02;;;;;;;;;;5036840;28;20035;-81
2023/10/27 13:59:34;;;;;;;18.23;10.75;;;;;;;;;;5043675;28;20094;-82
2023/10/27 14:01:59;;;;;;;17.27;10.63;;;;;;;;;;5041657;28;20067;-82
2023/10/27 14:04:27;;;;;;;18.13;11.70;;;;;;;;;;5033582;28;20052;-82
2023/10/27 14:06:52;;;;;;;17.17;11.13;;;;;;;;;;5032018;28;20158;-82
2023/10/27 14:09:18;;;;;;;17.42;11.23;;;;;;;;;;5035068;28;20085;-82
2023/10/27 14:11:56;;;;;;;20.63;12.27;;;;;;;;;;5014056;28;20037;-81
2023/10/27 14:14:22;;;;;;;19.00;11.70;;;;;;;;;;5030974;28;20993;-82
2023/10/27 14:16:48;;;;;;;18.13;10.77;;;;;;;;;;5026801;28;20047;-82
2023/10/27 14:19:16;;;;;;;16.98;10.95;;;;;;;;;;5043618;28;20039;-82
2023/10/27 14:21:43;;;;;;;18.80;11.18;;;;;;;;;;5034103;28;20036;-82
2023/10/27 14:24:17;;;;;;;26.27;15.57;;;;;;;;;;5015822;28;20115;-81
2023/10/27 14:26:43;;;;;;;32.72;18.65;;;;;;;;;;5033054;28;20072;-82
2023/10/27 14:29:16;;;;;;;19.77;11.60;;;;;;;;;;5045397;28;20448;-81